Terminal Aerodrome Forecast
Issued by NWS

Home | Current Version | Previous Version | Text Only | Print | Product List | Glossary On
Versions: 1 2 3 4 5 6 7 8 9 10 11 12 13 14 15 16 17 18 19 20 21 22
000
FTUS41 KPBZ 312300
TAFHLG
TAF
KHLG 312324Z 0100/0124 23006KT P6SM SCT250
     FM010900 VRB03KT 3SM -SN BR OVC018
     FM011100 10005KT 1SM -SN BR OVC004
     FM012000 11006KT 2SM -DZ BR OVC003=

USA.gov is the U.S. government's official web portal to all federal, state and local government web resources and services.